createdAt,value
2022-11-18T00:01:21.709Z,61.55
2022-11-18T00:03:50.366Z,61.56
2022-11-18T00:06:20.638Z,60.97
2022-11-18T00:08:48.846Z,60.78
2022-11-18T00:11:37.710Z,61.24
2022-11-18T00:14:24.953Z,61.14
2022-11-18T00:17:01.608Z,61.43
2022-11-18T00:19:30.139Z,61.37
2022-11-18T00:21:58.424Z,60.88
2022-11-18T00:24:26.813Z,61.11
2022-11-18T00:26:55.412Z,61.14
2022-11-18T00:29:24.135Z,60.58
2022-11-18T00:31:51.819Z,61.26
2022-11-18T00:34:19.599Z,60.83
2022-11-18T00:36:48.280Z,60.54
2022-11-18T00:39:18.495Z,60.61
2022-11-18T00:42:05.581Z,60.74
2022-11-18T00:44:33.347Z,60.69
2022-11-18T00:47:00.839Z,60.55
2022-11-18T00:49:28.741Z,60.51
2022-11-18T00:51:56.254Z,60.28
2022-11-18T00:54:23.796Z,60.21
2022-11-18T00:56:53.785Z,60.13
2022-11-18T00:59:21.598Z,59.96
2022-11-18T01:01:49.326Z,60.61
2022-11-18T01:04:17.706Z,60.07
2022-11-18T01:06:45.256Z,60.44
2022-11-18T01:09:12.690Z,59.96
2022-11-18T01:11:58.903Z,60.04
2022-11-18T01:14:26.865Z,60.29
2022-11-18T01:16:55.988Z,60.44
2022-11-18T01:19:26.410Z,60.60
2022-11-18T01:21:56.792Z,60.50
2022-11-18T01:24:24.339Z,60.30
2022-11-18T01:26:54.209Z,60.29
2022-11-18T01:29:21.884Z,60.53
2022-11-18T01:32:17.400Z,60.47
2022-11-18T01:34:37.140Z,60.26
2022-11-18T01:37:04.612Z,60.05
2022-11-18T01:39:32.170Z,60.00
2022-11-18T01:41:59.679Z,59.87
2022-11-18T01:45:00.784Z,60.60
2022-11-18T01:47:34.297Z,59.92
2022-11-18T01:50:02.691Z,60.05
2022-11-18T01:52:33.159Z,59.99
2022-11-18T01:55:06.765Z,60.25
2022-11-18T01:57:34.889Z,59.95
2022-11-18T02:00:06.275Z,60.19
2022-11-18T02:02:37.557Z,60.18
2022-11-18T02:05:07.653Z,60.08
2022-11-18T02:07:39.370Z,59.95
2022-11-18T02:10:07.848Z,60.23
2022-11-18T02:12:37.559Z,60.02
2022-11-18T02:15:05.697Z,59.93
2022-11-18T02:17:48.937Z,60.36
2022-11-18T02:20:28.553Z,60.30
2022-11-18T02:23:34.115Z,60.31
2022-11-18T02:26:21.786Z,60.06
2022-11-18T02:29:09.846Z,59.63
2022-11-18T02:31:43.077Z,59.79
2022-11-18T02:34:24.722Z,59.69
2022-11-18T02:37:08.119Z,59.87
2022-11-18T02:39:39.768Z,59.90
2022-11-18T02:42:11.628Z,59.91
2022-11-18T02:44:43.957Z,59.98
2022-11-18T02:47:15.587Z,59.73
2022-11-18T02:49:51.060Z,60.06
2022-11-18T02:52:21.253Z,59.95
2022-11-18T02:54:50.548Z,60.17
2022-11-18T02:57:20.942Z,60.64
2022-11-18T02:59:49.086Z,59.90
2022-11-18T03:02:20.483Z,60.60
2022-11-18T03:04:49.767Z,60.42
2022-11-18T03:07:25.636Z,60.11
2022-11-18T03:09:53.386Z,60.19
2022-11-18T03:12:43.288Z,60.61
2022-11-18T03:15:13.813Z,60.16
2022-11-18T03:18:08.794Z,60.60
2022-11-18T03:20:52.891Z,60.11
2022-11-18T03:23:56.977Z,59.85
2022-11-18T03:26:40.120Z,60.10
2022-11-18T03:29:10.254Z,59.75
2022-11-18T03:31:57.245Z,60.00
2022-11-18T03:34:34.880Z,59.81
2022-11-18T03:37:10.249Z,59.92
2022-11-18T03:39:43.081Z,60.06
2022-11-18T03:42:22.237Z,60.11
2022-11-18T03:44:54.712Z,59.71
2022-11-18T03:47:28.931Z,59.63
2022-11-18T03:50:05.706Z,59.46
2022-11-18T03:52:37.198Z,60.06
2022-11-18T03:55:12.542Z,59.59
2022-11-18T03:57:51.838Z,59.93
2022-11-18T04:00:20.468Z,59.77
2022-11-18T04:02:50.944Z,59.92
2022-11-18T04:05:19.652Z,60.13
2022-11-18T04:08:00.118Z,59.83
2022-11-18T04:10:50.138Z,60.33
2022-11-18T04:13:24.352Z,59.67
2022-11-18T04:15:53.933Z,59.99
2022-11-18T04:18:21.484Z,59.78
2022-11-18T04:20:49.045Z,60.04
2022-11-18T04:23:16.613Z,59.77
2022-11-18T04:25:44.282Z,60.14
2022-11-18T04:28:12.080Z,59.36
2022-11-18T04:30:39.565Z,59.65
2022-11-18T04:33:07.009Z,59.64
2022-11-18T04:35:34.442Z,59.14
2022-11-18T04:38:01.889Z,59.58
2022-11-18T04:40:29.361Z,59.39
2022-11-18T04:42:56.924Z,59.57
2022-11-18T04:45:24.491Z,59.88
2022-11-18T04:47:51.941Z,59.29
2022-11-18T04:50:19.592Z,59.61
2022-11-18T04:52:47.034Z,59.44
2022-11-18T04:55:14.598Z,58.93
2022-11-18T04:57:42.069Z,58.89
2022-11-18T05:00:09.988Z,59.28
2022-11-18T05:02:37.441Z,58.95
2022-11-18T05:05:05.353Z,59.36
2022-11-18T05:07:32.893Z,59.12
2022-11-18T05:10:00.370Z,59.09
2022-11-18T05:12:47.671Z,59.19
2022-11-18T05:15:19.772Z,59.04
2022-11-18T05:17:48.068Z,59.47
2022-11-18T05:20:16.277Z,59.66
2022-11-18T05:22:43.783Z,59.88
2022-11-18T05:25:11.363Z,59.32
2022-11-18T05:27:40.218Z,59.77
2022-11-18T05:30:08.469Z,59.62
2022-11-18T05:32:35.901Z,59.55
2022-11-18T05:35:03.511Z,59.81
2022-11-18T05:37:33.438Z,59.62
2022-11-18T05:40:01.054Z,59.46
2022-11-18T05:42:47.321Z,59.58
2022-11-18T05:45:16.138Z,58.98
2022-11-18T05:48:04.008Z,59.32
2022-11-18T05:50:33.509Z,59.23
2022-11-18T05:53:01.688Z,59.67
2022-11-18T05:55:39.987Z,59.37
2022-11-18T05:58:07.511Z,59.48
2022-11-18T06:00:35.182Z,59.28
2022-11-18T06:03:07.380Z,59.07
2022-11-18T06:05:35.091Z,59.52
2022-11-18T06:08:02.789Z,59.63
2022-11-18T06:10:35.180Z,59.53
2022-11-18T06:13:12.074Z,59.31
2022-11-18T06:15:43.911Z,59.07
2022-11-18T06:18:24.532Z,59.36
2022-11-18T06:20:55.542Z,59.14
2022-11-18T06:23:23.332Z,58.94
2022-11-18T06:25:51.204Z,59.02
2022-11-18T06:28:20.068Z,59.20
2022-11-18T06:30:47.724Z,59.28
2022-11-18T06:33:15.138Z,58.97
2022-11-18T06:35:43.668Z,59.61
2022-11-18T06:38:13.741Z,59.20
2022-11-18T06:40:44.803Z,59.62
2022-11-18T06:43:31.061Z,59.57
2022-11-18T06:46:18.193Z,59.23
2022-11-18T06:48:45.871Z,59.41
2022-11-18T06:51:13.514Z,59.31
2022-11-18T06:53:41.160Z,59.29
2022-11-18T06:56:12.564Z,59.55
2022-11-18T06:58:40.952Z,59.71
2022-11-18T07:01:15.646Z,59.68
2022-11-18T07:03:44.973Z,59.55
2022-11-18T07:06:15.094Z,59.50
2022-11-18T07:08:43.742Z,59.42
2022-11-18T07:11:13.653Z,59.29
2022-11-18T07:13:43.724Z,59.33
2022-11-18T07:16:14.352Z,58.95
2022-11-18T07:18:43.756Z,59.12
2022-11-18T07:21:14.193Z,58.72
2022-11-18T07:23:42.357Z,58.59
2022-11-18T07:26:10.796Z,58.48
2022-11-18T07:28:38.528Z,58.49
2022-11-18T07:31:14.473Z,58.75
2022-11-18T07:33:43.429Z,58.93
2022-11-18T07:36:13.054Z,58.80
2022-11-18T07:38:41.332Z,59.32
2022-11-18T07:41:30.484Z,58.94
2022-11-18T07:44:00.993Z,59.17
2022-11-18T07:46:29.407Z,58.87
2022-11-18T07:48:59.277Z,58.79
2022-11-18T07:51:29.237Z,59.04
2022-11-18T07:53:56.890Z,59.21
2022-11-18T07:56:25.097Z,59.11
2022-11-18T07:58:54.531Z,58.90
2022-11-18T08:01:24.548Z,58.94
2022-11-18T08:03:52.388Z,59.26
2022-11-18T08:06:20.336Z,58.65
2022-11-18T08:08:48.340Z,59.07
2022-11-18T08:11:22.343Z,58.65
2022-11-18T08:13:52.038Z,58.80
2022-11-18T08:16:22.876Z,58.50
2022-11-18T08:18:50.926Z,58.48
2022-11-18T08:21:20.458Z,58.19
2022-11-18T08:23:58.533Z,58.24
2022-11-18T08:26:27.211Z,58.24
2022-11-18T08:28:55.573Z,58.12
2022-11-18T08:31:26.538Z,58.23
2022-11-18T08:34:02.676Z,58.51
2022-11-18T08:36:32.800Z,58.57
2022-11-18T08:39:01.869Z,58.44
2022-11-18T08:41:44.045Z,58.15
2022-11-18T08:44:16.594Z,57.94
2022-11-18T08:46:47.734Z,57.95
2022-11-18T08:49:15.572Z,57.62
2022-11-18T08:51:43.302Z,57.45
2022-11-18T08:54:10.802Z,57.64
2022-11-18T08:56:39.314Z,57.43
2022-11-18T08:59:06.944Z,57.42
2022-11-18T09:01:35.866Z,57.73
2022-11-18T09:04:04.183Z,57.29
2022-11-18T09:06:31.659Z,57.66
2022-11-18T09:09:03.449Z,57.86
2022-11-18T09:11:34.889Z,57.38
2022-11-18T09:16:50.415Z,57.78
2022-11-18T09:19:46.085Z,58.13
2022-11-18T09:22:06.654Z,57.50
2022-11-18T09:24:34.884Z,57.73
2022-11-18T09:27:10.830Z,57.70
2022-11-18T09:29:41.394Z,57.69
2022-11-18T09:32:08.909Z,57.37
2022-11-18T09:34:37.711Z,57.63
2022-11-18T09:37:06.800Z,57.78
2022-11-18T09:39:36.559Z,57.60
2022-11-18T09:42:23.599Z,57.95
2022-11-18T09:45:14.004Z,58.02
2022-11-18T09:47:43.295Z,58.27
2022-11-18T09:50:47.934Z,58.21
2022-11-18T09:53:19.246Z,57.79
2022-11-18T09:55:48.982Z,57.85
2022-11-18T09:58:28.641Z,57.96
2022-11-18T10:00:56.236Z,58.03
2022-11-18T10:03:28.265Z,57.92
2022-11-18T10:06:03.811Z,57.79
2022-11-18T10:08:48.523Z,58.03
2022-11-18T10:11:25.461Z,57.51
2022-11-18T10:14:24.514Z,57.31
2022-11-18T10:17:20.479Z,57.68
2022-11-18T10:19:55.295Z,57.18
2022-11-18T10:22:31.764Z,56.75
2022-11-18T10:25:02.799Z,56.76
2022-11-18T10:27:38.904Z,56.88
2022-11-18T10:30:26.657Z,56.67
2022-11-18T10:32:58.654Z,57.32
2022-11-18T10:35:38.347Z,57.19
2022-11-18T10:38:14.881Z,57.38
2022-11-18T10:41:01.412Z,57.07
2022-11-18T10:43:47.934Z,56.75
2022-11-18T10:46:32.438Z,57.06
2022-11-18T10:49:09.056Z,57.07
2022-11-18T10:51:37.718Z,57.15
2022-11-18T10:54:09.718Z,57.41
2022-11-18T10:56:46.237Z,57.27
2022-11-18T10:59:48.160Z,57.58
2022-11-18T11:02:19.945Z,57.17
2022-11-18T11:04:49.874Z,57.32
2022-11-18T11:07:38.106Z,57.35
2022-11-18T11:10:08.447Z,57.38
2022-11-18T11:12:47.324Z,56.63
2022-11-18T11:15:19.380Z,56.82
2022-11-18T11:18:10.761Z,56.88
2022-11-18T11:20:39.047Z,57.41
2022-11-18T11:23:11.831Z,57.23
2022-11-18T11:29:22.856Z,57.15
2022-11-18T11:32:21.894Z,57.17
2022-11-18T11:35:01.206Z,57.01
2022-11-18T11:37:47.143Z,57.38
2022-11-18T11:40:39.561Z,57.52
2022-11-18T11:43:28.332Z,57.17
2022-11-18T11:46:11.919Z,57.25
2022-11-18T11:48:45.112Z,57.14
2022-11-18T11:51:41.627Z,57.20
2022-11-18T11:54:19.454Z,56.82
2022-11-18T11:56:51.712Z,56.98
2022-11-18T11:59:31.369Z,57.06
2022-11-18T12:02:37.163Z,57.39
2022-11-18T12:05:11.121Z,57.35
2022-11-18T12:07:45.632Z,57.10
2022-11-18T12:10:20.791Z,57.44
2022-11-18T12:13:09.031Z,57.03
2022-11-18T12:16:09.759Z,57.20
2022-11-18T12:18:37.191Z,56.98
2022-11-18T12:21:04.768Z,57.35
2022-11-18T12:23:34.121Z,57.41
2022-11-18T12:26:11.421Z,57.22
2022-11-18T12:28:39.147Z,57.47
2022-11-18T12:31:18.601Z,58.10
2022-11-18T12:33:55.444Z,57.56
2022-11-18T12:36:27.192Z,57.37
2022-11-18T12:38:55.769Z,57.57
2022-11-18T12:42:00.208Z,57.52
2022-11-18T12:44:29.774Z,57.52
2022-11-18T12:47:01.492Z,57.61
2022-11-18T12:49:29.191Z,57.51
2022-11-18T12:52:01.367Z,57.59
2022-11-18T12:54:39.262Z,57.60
2022-11-18T12:57:22.787Z,57.77
2022-11-18T12:59:50.804Z,57.35
2022-11-18T13:02:25.946Z,57.45
2022-11-18T13:05:19.509Z,57.94
2022-11-18T13:08:12.465Z,57.82
2022-11-18T13:11:26.521Z,57.93
2022-11-18T13:14:14.939Z,57.88
2022-11-18T13:17:02.933Z,57.74
2022-11-18T13:19:30.462Z,57.76
2022-11-18T13:22:18.815Z,57.69
2022-11-18T13:24:52.087Z,57.81
2022-11-18T13:27:54.407Z,58.07
2022-11-18T13:30:22.021Z,58.29
2022-11-18T13:32:50.553Z,58.13
2022-11-18T13:35:23.515Z,57.63
2022-11-18T13:37:59.904Z,58.08
2022-11-18T13:40:38.315Z,57.85
2022-11-18T13:43:06.069Z,57.81
2022-11-18T13:45:34.773Z,57.74
2022-11-18T13:48:09.726Z,57.91
2022-11-18T13:50:39.965Z,57.84
2022-11-18T13:53:38.255Z,58.37
2022-11-18T13:56:33.231Z,57.88
2022-11-18T13:59:16.792Z,57.66
2022-11-18T14:01:47.009Z,57.89
2022-11-18T14:04:23.951Z,57.77
2022-11-18T14:06:51.782Z,57.55
2022-11-18T14:09:27.310Z,57.79
2022-11-18T14:12:10.113Z,58.04
2022-11-18T14:14:40.040Z,57.67
2022-11-18T14:17:18.585Z,57.97
2022-11-18T14:19:48.706Z,57.80
2022-11-18T14:22:25.392Z,58.15
2022-11-18T14:25:00.225Z,58.42
2022-11-18T14:27:40.856Z,58.27
2022-11-18T14:30:27.687Z,58.19
2022-11-18T14:33:13.712Z,58.37
2022-11-18T14:35:44.149Z,58.09
2022-11-18T14:38:43.591Z,57.77
2022-11-18T14:41:11.010Z,57.92
2022-11-18T14:43:38.687Z,58.22
2022-11-18T14:46:14.338Z,58.20
2022-11-18T14:48:42.061Z,58.22
2022-11-18T14:51:14.779Z,57.83
2022-11-18T14:53:43.500Z,57.98
2022-11-18T14:56:28.977Z,58.10
2022-11-18T14:58:56.932Z,57.87
2022-11-18T15:01:29.286Z,57.74
2022-11-18T15:04:00.650Z,58.04
2022-11-18T15:06:28.688Z,57.75
2022-11-18T15:08:56.169Z,57.63
2022-11-18T15:11:23.748Z,57.63
2022-11-18T15:13:51.258Z,57.42
2022-11-18T15:16:24.874Z,57.64
2022-11-18T15:18:54.568Z,57.64
2022-11-18T15:21:22.724Z,57.75
2022-11-18T15:23:50.879Z,57.86
2022-11-18T15:26:29.872Z,58.13
2022-11-18T15:28:58.058Z,57.96
2022-11-18T15:31:26.272Z,58.19
2022-11-18T15:33:54.119Z,58.22
2022-11-18T15:36:23.943Z,58.04
2022-11-18T15:38:55.824Z,58.32
2022-11-18T15:41:28.209Z,59.03
2022-11-18T15:43:58.890Z,58.47
2022-11-18T15:46:28.296Z,58.29
2022-11-18T15:49:00.230Z,58.37
2022-11-18T15:51:29.658Z,58.33
2022-11-18T15:53:58.445Z,58.19
2022-11-18T15:56:28.844Z,58.26
2022-11-18T15:58:57.559Z,58.45
2022-11-18T16:01:30.807Z,58.91
2022-11-18T16:03:58.694Z,58.55
2022-11-18T16:06:27.110Z,58.86
2022-11-18T16:08:59.604Z,58.80
2022-11-18T16:11:48.266Z,58.76
2022-11-18T16:14:18.519Z,58.79
2022-11-18T16:16:48.020Z,58.41
2022-11-18T16:19:18.042Z,58.41
2022-11-18T16:21:51.820Z,58.53
2022-11-18T16:24:22.131Z,58.21
2022-11-18T16:26:50.440Z,58.01
2022-11-18T16:29:18.692Z,58.32
2022-11-18T16:31:52.639Z,58.48
2022-11-18T16:34:28.295Z,58.24
2022-11-18T16:36:59.797Z,58.20
2022-11-18T16:39:28.455Z,58.27
2022-11-18T16:42:06.454Z,58.15
2022-11-18T16:44:35.793Z,58.37
2022-11-18T16:47:08.993Z,58.02
2022-11-18T16:49:40.287Z,58.07
2022-11-18T16:52:08.860Z,58.15
2022-11-18T16:54:42.983Z,58.13
2022-11-18T16:57:13.257Z,57.97
2022-11-18T16:59:41.047Z,57.99
2022-11-18T17:02:12.819Z,57.84
2022-11-18T17:04:40.764Z,57.70
2022-11-18T17:07:08.385Z,57.97
2022-11-18T17:09:36.246Z,57.90
2022-11-18T17:12:04.104Z,58.05
2022-11-18T17:14:32.146Z,57.86
2022-11-18T17:16:59.909Z,58.15
2022-11-18T17:19:27.399Z,58.08
2022-11-18T17:21:55.107Z,58.09
2022-11-18T17:24:23.620Z,57.89
2022-11-18T17:26:52.339Z,58.20
2022-11-18T17:29:20.626Z,58.08
2022-11-18T17:31:48.747Z,58.21
2022-11-18T17:34:16.754Z,58.31
2022-11-18T17:36:44.683Z,58.43
2022-11-18T17:39:13.441Z,58.53
2022-11-18T17:42:00.121Z,58.42
2022-11-18T17:44:29.302Z,58.79
2022-11-18T17:46:56.937Z,58.91
2022-11-18T17:49:24.462Z,58.99
2022-11-18T17:51:53.536Z,59.18
2022-11-18T17:54:22.076Z,59.19
2022-11-18T17:56:52.422Z,59.59
2022-11-18T17:59:21.062Z,59.80
2022-11-18T18:01:52.861Z,60.16
2022-11-18T18:04:23.367Z,59.93
2022-11-18T18:06:52.981Z,59.99
2022-11-18T18:09:28.512Z,59.76
2022-11-18T18:11:58.954Z,60.41
2022-11-18T18:14:26.553Z,60.46
2022-11-18T18:16:54.327Z,60.34
2022-11-18T18:19:23.379Z,60.66
2022-11-18T18:21:50.928Z,60.55
2022-11-18T18:24:21.005Z,60.71
2022-11-18T18:26:49.268Z,60.62
2022-11-18T18:29:16.891Z,60.52
2022-11-18T18:31:44.407Z,60.29
2022-11-18T18:34:11.947Z,60.81
2022-11-18T18:36:39.494Z,60.85
2022-11-18T18:39:06.986Z,60.69
2022-11-18T18:41:34.661Z,60.49
2022-11-18T18:44:02.350Z,60.67
2022-11-18T18:46:31.110Z,60.70
2022-11-18T18:48:58.985Z,60.27
2022-11-18T18:51:34.775Z,60.65
2022-11-18T18:54:03.061Z,60.51
2022-11-18T18:56:30.587Z,60.61
2022-11-18T18:58:58.546Z,60.66
2022-11-18T19:01:27.922Z,60.83
2022-11-18T19:03:57.518Z,60.86
2022-11-18T19:09:15.615Z,60.34
2022-11-18T19:12:02.228Z,60.45
2022-11-18T19:14:30.048Z,60.51
2022-11-18T19:16:57.727Z,60.48
2022-11-18T19:19:46.878Z,60.66
2022-11-18T19:22:15.200Z,60.73
2022-11-18T19:24:49.728Z,60.65
2022-11-18T19:27:19.314Z,60.66
2022-11-18T19:29:47.180Z,61.00
2022-11-18T19:32:15.353Z,60.95
2022-11-18T19:34:42.886Z,61.11
2022-11-18T19:37:10.531Z,60.95
2022-11-18T19:39:38.739Z,60.82
2022-11-18T19:42:06.470Z,61.09
2022-11-18T19:44:34.033Z,61.27
2022-11-18T19:47:01.655Z,61.44
2022-11-18T19:49:29.229Z,61.50
2022-11-18T19:51:56.734Z,61.30
2022-11-18T19:54:24.181Z,61.51
2022-11-18T19:56:51.761Z,61.65
2022-11-18T19:59:19.500Z,61.76
2022-11-18T20:01:47.309Z,61.87
2022-11-18T20:04:14.880Z,61.48
2022-11-18T20:06:42.383Z,61.74
2022-11-18T20:09:11.282Z,61.46
2022-11-18T20:11:41.228Z,61.67
2022-11-18T20:14:12.567Z,61.58
2022-11-18T20:16:42.610Z,61.71
2022-11-18T20:19:13.715Z,61.35
2022-11-18T20:21:43.482Z,61.89
2022-11-18T20:24:16.045Z,61.61
2022-11-18T20:26:44.558Z,61.65
2022-11-18T20:29:12.820Z,61.57
2022-11-18T20:31:40.278Z,61.99
2022-11-18T20:34:07.809Z,61.93
2022-11-18T20:36:36.576Z,62.03
2022-11-18T20:39:07.752Z,61.86
2022-11-18T20:41:36.586Z,62.08
2022-11-18T20:44:04.389Z,61.88
2022-11-18T20:46:33.338Z,61.87
2022-11-18T20:49:00.934Z,61.69
2022-11-18T20:51:29.198Z,61.79
2022-11-18T20:53:58.217Z,62.16
2022-11-18T20:56:27.781Z,61.98
2022-11-18T20:58:57.878Z,61.67
2022-11-18T21:01:28.719Z,61.61
2022-11-18T21:03:58.604Z,61.53
2022-11-18T21:06:29.111Z,61.29
2022-11-18T21:08:59.007Z,61.40
2022-11-18T21:11:27.336Z,61.42
2022-11-18T21:14:16.039Z,61.42
2022-11-18T21:16:46.484Z,61.57
2022-11-18T21:19:14.421Z,61.27
2022-11-18T21:21:44.820Z,61.17
2022-11-18T21:24:14.452Z,61.40
2022-11-18T21:26:42.714Z,61.12
2022-11-18T21:29:11.873Z,61.03
2022-11-18T21:31:39.929Z,61.53
2022-11-18T21:34:08.613Z,61.78
2022-11-18T21:36:40.086Z,61.70
2022-11-18T21:39:12.504Z,61.49
2022-11-18T21:41:40.608Z,61.56
2022-11-18T21:44:10.576Z,61.68
2022-11-18T21:46:42.237Z,61.67
2022-11-18T21:49:10.269Z,61.73
2022-11-18T21:51:37.986Z,61.86
2022-11-18T21:54:05.795Z,61.76
2022-11-18T21:56:33.329Z,61.70
2022-11-18T21:59:02.408Z,61.90
2022-11-18T22:01:33.600Z,62.14
2022-11-18T22:04:03.799Z,61.85
2022-11-18T22:06:33.844Z,61.78
2022-11-18T22:09:03.668Z,61.91
2022-11-18T22:11:31.328Z,61.52
2022-11-18T22:13:58.789Z,61.51
2022-11-18T22:16:27.013Z,61.58
2022-11-18T22:19:01.433Z,61.62
2022-11-18T22:21:31.387Z,61.21
2022-11-18T22:24:00.469Z,61.37
2022-11-18T22:26:28.798Z,61.06
2022-11-18T22:28:58.154Z,61.82
2022-11-18T22:31:27.705Z,61.38
2022-11-18T22:33:56.138Z,61.27
2022-11-18T22:36:25.707Z,60.72
2022-11-18T22:38:54.429Z,60.96
2022-11-18T22:41:45.134Z,61.13
2022-11-18T22:44:14.986Z,61.13
2022-11-18T22:46:44.892Z,60.80
2022-11-18T22:49:13.792Z,61.36
2022-11-18T22:51:41.461Z,61.01
2022-11-18T22:54:37.306Z,60.85
2022-11-18T22:56:57.718Z,61.19
2022-11-18T22:59:25.396Z,61.39
2022-11-18T23:01:53.241Z,61.34
2022-11-18T23:04:21.164Z,60.94
2022-11-18T23:06:49.724Z,61.22
2022-11-18T23:09:17.864Z,61.14
2022-11-18T23:12:04.215Z,61.07
2022-11-18T23:14:31.724Z,60.96
2022-11-18T23:16:59.800Z,60.93
2022-11-18T23:19:27.329Z,61.21
2022-11-18T23:21:54.830Z,60.76
2022-11-18T23:24:22.569Z,60.74
2022-11-18T23:26:50.233Z,61.03
2022-11-18T23:29:18.090Z,61.01
2022-11-18T23:31:45.998Z,61.11
2022-11-18T23:34:15.737Z,60.77
2022-11-18T23:36:43.852Z,60.87
2022-11-18T23:39:12.279Z,60.70
2022-11-18T23:41:40.680Z,60.79
2022-11-18T23:44:08.303Z,60.86
2022-11-18T23:46:36.477Z,60.61
2022-11-18T23:49:08.878Z,60.64
2022-11-18T23:51:36.446Z,60.56
2022-11-18T23:54:04.083Z,60.60
2022-11-18T23:56:37.466Z,60.52
2022-11-18T23:59:06.646Z,61.00
